createdAt,value
2023-05-11T00:01:46.118Z,19.60
2023-05-11T00:04:46.842Z,18.00
2023-05-11T00:07:45.385Z,20.80
2023-05-11T00:10:47.795Z,20.70
2023-05-11T00:13:36.876Z,20.50
2023-05-11T00:15:05.591Z,19.30
2023-05-11T00:22:03.993Z,19.80
2023-05-11T00:24:37.668Z,18.20
2023-05-11T00:26:07.501Z,19.40
2023-05-11T00:30:43.946Z,20.70
2023-05-11T00:34:36.909Z,19.00
2023-05-11T00:41:16.977Z,20.50
2023-05-11T00:44:53.801Z,20.20
2023-05-11T00:46:42.214Z,18.80
2023-05-11T00:50:43.244Z,22.50
2023-05-11T00:53:13.112Z,19.90
2023-05-11T00:56:43.775Z,20.60
2023-05-11T00:58:13.391Z,22.90
2023-05-11T01:00:40.026Z,20.20
2023-05-11T01:04:01.518Z,20.80
2023-05-11T01:14:01.314Z,20.60
2023-05-11T01:17:18.835Z,22.40
2023-05-11T01:19:08.212Z,23.20
2023-05-11T01:22:30.611Z,23.20
2023-05-11T01:30:24.869Z,21.90
2023-05-11T01:32:22.826Z,19.00
2023-05-11T01:38:44.830Z,19.60
2023-05-11T01:41:02.625Z,18.40
2023-05-11T01:48:15.918Z,22.00
2023-05-11T01:53:33.155Z,24.80
2023-05-11T01:56:00.045Z,21.70
2023-05-11T01:58:01.628Z,19.80
2023-05-11T02:01:32.007Z,23.10
2023-05-11T02:04:01.238Z,24.50
2023-05-11T02:10:53.409Z,23.70
2023-05-11T02:13:41.187Z,25.30
2023-05-11T02:15:40.013Z,23.40
2023-05-11T02:34:39.288Z,22.70
2023-05-11T02:39:08.103Z,23.30
2023-05-11T02:41:55.659Z,24.40
2023-05-11T02:43:54.053Z,27.30
2023-05-11T02:45:24.658Z,27.00
2023-05-11T02:48:44.051Z,31.90
2023-05-11T02:55:27.623Z,24.90
2023-05-11T03:00:13.108Z,24.40
2023-05-11T03:05:50.537Z,27.10
2023-05-11T03:07:54.717Z,28.40
2023-05-11T03:10:13.350Z,25.40
2023-05-11T03:12:46.470Z,28.80
2023-05-11T03:20:12.885Z,27.20
2023-05-11T03:21:44.537Z,24.10
2023-05-11T03:26:19.570Z,28.90
2023-05-11T03:28:16.660Z,25.10
2023-05-11T03:37:00.849Z,27.00
2023-05-11T03:40:49.518Z,30.70
2023-05-11T03:47:06.859Z,28.60
2023-05-11T03:48:35.753Z,31.80
2023-05-11T03:51:13.153Z,36.20
2023-05-11T03:58:48.468Z,31.50
2023-05-11T04:00:18.126Z,31.60
2023-05-11T04:03:43.746Z,26.60
2023-05-11T04:09:24.784Z,16.40
2023-05-11T04:12:10.814Z,16.20
2023-05-11T04:16:09.599Z,16.20
2023-05-11T04:19:36.571Z,20.10
2023-05-11T04:22:02.624Z,18.40
2023-05-11T04:23:02.600Z,19.50
2023-05-11T04:24:02.578Z,21.10
2023-05-11T04:25:02.600Z,20.30
2023-05-11T04:31:26.786Z,13.40
2023-05-11T04:35:06.631Z,11.50
2023-05-11T04:38:58.130Z,10.90
2023-05-11T04:43:56.755Z,12.80
2023-05-11T04:46:24.858Z,13.50
2023-05-11T04:53:14.283Z,10.30
2023-05-11T04:55:16.367Z,11.60
2023-05-11T04:56:45.272Z,13.60
2023-05-11T04:58:44.354Z,8.50
2023-05-11T05:00:49.051Z,7.90
2023-05-11T05:02:17.910Z,8.00
2023-05-11T05:04:17.995Z,7.30
2023-05-11T05:06:16.685Z,8.10
2023-05-11T05:08:06.643Z,6.70
2023-05-11T05:09:16.535Z,6.50
2023-05-11T05:11:37.343Z,6.60
2023-05-11T05:13:07.279Z,6.70
2023-05-11T05:14:07.297Z,9.30
2023-05-11T05:15:07.502Z,8.40
2023-05-11T05:18:06.089Z,6.90
2023-05-11T05:21:13.596Z,7.30
2023-05-11T05:23:12.487Z,7.40
2023-05-11T05:26:30.626Z,9.00
2023-05-11T05:28:28.520Z,9.70
2023-05-11T05:32:09.877Z,9.80
2023-05-11T05:37:01.449Z,10.00
2023-05-11T05:41:16.003Z,10.70
2023-05-11T05:43:09.677Z,12.30
2023-05-11T05:44:36.723Z,12.10
2023-05-11T05:46:08.618Z,12.90
2023-05-11T05:48:06.550Z,13.10
2023-05-11T05:50:25.283Z,13.70
2023-05-11T05:51:54.102Z,12.30
2023-05-11T05:53:54.908Z,14.50
2023-05-11T05:59:21.353Z,12.30
2023-05-11T06:01:21.165Z,12.10
2023-05-11T06:03:53.137Z,12.50
2023-05-11T06:05:39.801Z,10.10
2023-05-11T06:10:37.615Z,8.80
2023-05-11T06:13:08.408Z,7.70
2023-05-11T06:14:37.205Z,6.60
2023-05-11T06:17:11.153Z,7.80
2023-05-11T06:19:39.914Z,7.20
2023-05-11T06:22:31.460Z,6.40
2023-05-11T06:24:58.368Z,6.40
2023-05-11T06:29:26.602Z,6.50
2023-05-11T06:31:52.413Z,5.90
2023-05-11T06:34:11.135Z,5.90
2023-05-11T06:36:30.829Z,5.70
2023-05-11T06:38:00.732Z,5.90
2023-05-11T06:40:28.999Z,5.60
2023-05-11T06:43:27.446Z,5.60
2023-05-11T06:44:59.320Z,5.90
2023-05-11T06:46:46.804Z,4.30
2023-05-11T06:48:16.833Z,5.40
2023-05-11T06:49:46.768Z,5.00
2023-05-11T06:51:14.681Z,5.40
2023-05-11T06:54:31.413Z,4.40
2023-05-11T06:56:00.351Z,5.20
2023-05-11T06:57:29.235Z,4.90
2023-05-11T06:58:58.112Z,6.20
2023-05-11T07:00:26.979Z,8.10
2023-05-11T07:03:16.994Z,3.80
2023-05-11T07:04:47.150Z,4.60
2023-05-11T07:06:12.887Z,4.20
2023-05-11T07:11:56.755Z,11.70
2023-05-11T07:15:57.322Z,3.90
2023-05-11T07:18:48.307Z,3.30
2023-05-11T07:20:21.251Z,3.70
2023-05-11T07:22:36.721Z,5.60
2023-05-11T07:24:06.983Z,5.40
2023-05-11T07:26:54.732Z,4.40
2023-05-11T07:28:23.690Z,4.30
2023-05-11T07:29:53.088Z,3.90
2023-05-11T07:32:13.200Z,5.10
2023-05-11T07:38:23.649Z,3.40
2023-05-11T07:47:15.573Z,3.40
2023-05-11T07:51:15.527Z,4.00
2023-05-11T07:53:32.798Z,4.30
2023-05-11T07:55:23.486Z,4.50
2023-05-11T07:56:52.362Z,5.00
2023-05-11T08:00:16.003Z,5.40
2023-05-11T08:02:14.056Z,4.80
2023-05-11T08:04:01.161Z,4.80
2023-05-11T08:06:49.148Z,4.50
2023-05-11T08:12:39.461Z,4.40
2023-05-11T08:15:15.174Z,4.80
2023-05-11T08:16:43.079Z,4.10
2023-05-11T08:18:13.800Z,3.80
2023-05-11T08:21:55.080Z,4.00
2023-05-11T08:23:16.070Z,3.80
2023-05-11T08:23:55.032Z,4.20
2023-05-11T08:26:44.620Z,3.60
2023-05-11T08:28:15.532Z,3.60
2023-05-11T08:30:06.262Z,3.70
2023-05-11T08:31:36.270Z,3.30
2023-05-11T08:35:47.449Z,4.00
2023-05-11T08:39:58.523Z,3.50
2023-05-11T08:45:22.901Z,4.30
2023-05-11T08:48:59.817Z,4.10
2023-05-11T08:55:20.457Z,4.60
2023-05-11T08:58:07.986Z,5.00
2023-05-11T09:02:32.618Z,4.80
2023-05-11T09:14:44.874Z,6.30
2023-05-11T09:18:44.828Z,5.90
2023-05-11T09:21:33.780Z,6.50
2023-05-11T09:25:25.029Z,6.90
2023-05-11T09:26:54.344Z,7.00
2023-05-11T09:28:25.549Z,7.70
2023-05-11T09:29:52.367Z,7.40
2023-05-11T09:31:23.037Z,6.40
2023-05-11T09:33:42.161Z,5.80
2023-05-11T09:35:40.512Z,5.70
2023-05-11T09:46:38.235Z,7.10
2023-05-11T09:48:35.463Z,6.40
2023-05-11T09:50:05.417Z,6.20
2023-05-11T09:52:33.315Z,6.80
2023-05-11T09:54:50.898Z,7.10
2023-05-11T09:56:20.082Z,7.40
2023-05-11T09:57:48.691Z,7.00
2023-05-11T09:59:20.552Z,6.90
2023-05-11T10:01:17.448Z,8.20
2023-05-11T10:02:47.871Z,7.00
2023-05-11T10:08:52.706Z,9.10
2023-05-11T10:10:22.683Z,9.10
2023-05-11T10:11:52.519Z,8.50
2023-05-11T10:14:11.157Z,8.20
2023-05-11T10:17:59.758Z,9.30
2023-05-11T10:19:29.517Z,9.20
2023-05-11T10:22:27.475Z,10.40
2023-05-11T10:27:34.251Z,9.90
2023-05-11T10:30:52.564Z,10.40
2023-05-11T10:33:42.567Z,12.00
2023-05-11T10:44:08.393Z,6.50
2023-05-11T10:46:57.499Z,7.60
2023-05-11T10:48:29.317Z,7.60
2023-05-11T10:50:57.060Z,6.80
2023-05-11T10:58:22.578Z,6.90
2023-05-11T10:59:54.450Z,6.90
2023-05-11T11:01:25.410Z,7.00
2023-05-11T11:09:43.067Z,6.70
2023-05-11T11:11:30.015Z,5.50
2023-05-11T11:13:00.682Z,4.40
2023-05-11T11:14:32.593Z,4.10
2023-05-11T11:20:04.934Z,5.50
2023-05-11T11:23:01.540Z,4.90
2023-05-11T11:24:33.420Z,5.00
2023-05-11T11:26:34.395Z,5.60
2023-05-11T11:30:17.160Z,4.80
2023-05-11T11:31:46.093Z,5.60
2023-05-11T11:35:32.882Z,5.50
2023-05-11T11:37:21.680Z,4.10
2023-05-11T11:39:28.806Z,6.40
2023-05-11T11:44:55.637Z,3.10
2023-05-11T11:46:56.611Z,3.30
2023-05-11T11:49:59.716Z,2.70
2023-05-11T11:54:28.336Z,3.70
2023-05-11T12:02:43.244Z,6.50
2023-05-11T12:12:26.401Z,3.10
2023-05-11T12:21:10.036Z,6.20
2023-05-11T12:24:18.902Z,6.30
2023-05-11T12:25:49.891Z,6.00
2023-05-11T12:28:17.617Z,7.20
2023-05-11T12:31:51.717Z,7.10
2023-05-11T12:34:41.196Z,7.40
2023-05-11T12:37:28.811Z,7.30
2023-05-11T12:40:01.794Z,6.90
2023-05-11T12:43:11.165Z,6.60
2023-05-11T12:44:41.165Z,7.20
2023-05-11T12:46:42.338Z,7.20
2023-05-11T12:49:33.297Z,7.90
2023-05-11T12:53:08.626Z,8.60
2023-05-11T12:54:38.503Z,7.20
2023-05-11T12:58:20.682Z,6.30
2023-05-11T13:02:00.927Z,5.60
2023-05-11T13:05:28.019Z,5.90
2023-05-11T13:10:08.572Z,6.80
2023-05-11T13:23:55.112Z,9.30
2023-05-11T13:25:53.357Z,8.90
2023-05-11T13:29:01.865Z,9.90
2023-05-11T13:32:31.548Z,10.40
2023-05-11T13:35:03.933Z,7.70
2023-05-11T13:38:08.040Z,8.10
2023-05-11T13:50:04.421Z,8.90
2023-05-11T13:53:15.050Z,8.20
2023-05-11T13:56:11.732Z,8.20
2023-05-11T13:57:41.900Z,9.80
2023-05-11T14:00:01.643Z,9.60
2023-05-11T14:01:58.188Z,10.40
2023-05-11T14:03:56.177Z,12.00
2023-05-11T14:05:27.942Z,11.40
2023-05-11T14:06:54.932Z,10.40
2023-05-11T14:08:27.539Z,11.30
2023-05-11T14:12:16.237Z,11.40
2023-05-11T14:14:54.258Z,10.10
2023-05-11T14:17:11.381Z,10.10
2023-05-11T14:22:00.963Z,10.70
2023-05-11T14:24:17.683Z,9.90
2023-05-11T14:26:49.505Z,9.00
2023-05-11T14:29:42.515Z,8.80
2023-05-11T14:32:38.164Z,9.80
2023-05-11T14:39:59.865Z,9.10
2023-05-11T14:41:49.531Z,10.40
2023-05-11T14:43:19.430Z,11.00
2023-05-11T14:45:18.474Z,11.40
2023-05-11T14:46:50.229Z,10.50
2023-05-11T14:49:16.049Z,11.50
2023-05-11T14:51:39.620Z,11.20
2023-05-11T14:53:10.630Z,11.50
2023-05-11T14:56:37.718Z,12.50
2023-05-11T14:58:27.429Z,11.30
2023-05-11T14:59:06.426Z,11.80
2023-05-11T15:00:06.391Z,15.10
2023-05-11T15:02:55.411Z,10.40
2023-05-11T15:05:43.067Z,12.20
2023-05-11T15:11:12.177Z,12.10
2023-05-11T15:13:00.154Z,11.30
2023-05-11T15:14:30.143Z,11.60
2023-05-11T15:18:22.130Z,12.10
2023-05-11T15:22:19.575Z,11.10
2023-05-11T15:26:35.536Z,11.20
2023-05-11T15:30:20.440Z,12.00
2023-05-11T15:32:17.558Z,11.50
2023-05-11T15:34:19.174Z,11.60
2023-05-11T15:37:55.379Z,15.50
2023-05-11T15:39:56.155Z,14.70
2023-05-11T15:45:50.991Z,13.00
2023-05-11T15:49:32.784Z,11.90
2023-05-11T15:53:00.772Z,11.50
2023-05-11T15:54:59.684Z,13.10
2023-05-11T15:56:50.865Z,14.80
2023-05-11T15:58:18.793Z,14.40
2023-05-11T16:00:53.247Z,13.30
2023-05-11T16:04:52.341Z,15.90
2023-05-11T16:06:21.310Z,23.80
2023-05-11T16:12:32.300Z,13.50
2023-05-11T16:15:19.203Z,12.60
2023-05-11T16:16:48.474Z,13.30
2023-05-11T16:18:18.248Z,14.40
2023-05-11T16:24:18.001Z,18.20
2023-05-11T16:31:34.335Z,17.50
2023-05-11T16:33:06.208Z,16.80
2023-05-11T16:35:59.800Z,13.60
2023-05-11T16:37:58.865Z,15.20
2023-05-11T16:43:58.736Z,15.20
2023-05-11T16:45:58.285Z,20.10
2023-05-11T16:47:00.193Z,20.20
2023-05-11T16:47:58.996Z,19.40
2023-05-11T16:51:04.648Z,17.50
2023-05-11T16:53:02.610Z,18.20
2023-05-11T16:55:00.546Z,18.10
2023-05-11T17:02:49.112Z,16.10
2023-05-11T17:04:51.633Z,17.70
2023-05-11T17:06:21.384Z,15.50
2023-05-11T17:12:40.895Z,18.00
2023-05-11T17:13:37.447Z,16.50
2023-05-11T17:14:37.182Z,16.90
2023-05-11T17:20:18.931Z,16.60
2023-05-11T17:22:18.595Z,15.00
2023-05-11T17:23:46.578Z,15.90
2023-05-11T17:27:06.939Z,15.70
2023-05-11T17:28:36.330Z,17.20
2023-05-11T17:33:43.278Z,20.10
2023-05-11T17:35:16.281Z,17.60
2023-05-11T17:37:24.237Z,18.30
2023-05-11T17:39:47.838Z,20.60
2023-05-11T17:42:13.281Z,19.50
2023-05-11T17:43:42.111Z,17.90
2023-05-11T17:46:10.861Z,22.00
2023-05-11T17:48:08.735Z,18.90
2023-05-11T17:50:26.772Z,28.00
2023-05-11T17:53:36.122Z,21.60
2023-05-11T17:55:46.723Z,24.00
2023-05-11T18:00:13.248Z,24.00
2023-05-11T18:02:11.873Z,26.90
2023-05-11T18:03:41.097Z,24.10
2023-05-11T18:09:38.523Z,26.00
2023-05-11T18:11:28.621Z,26.70
2023-05-11T18:13:17.900Z,27.60
2023-05-11T18:17:10.993Z,24.20
2023-05-11T18:21:40.628Z,24.80
2023-05-11T18:27:54.557Z,24.30
2023-05-11T18:29:25.480Z,26.40
2023-05-11T18:31:27.372Z,25.20
2023-05-11T18:33:26.283Z,26.20
2023-05-11T18:36:14.972Z,26.00
2023-05-11T18:39:13.370Z,23.40
2023-05-11T18:41:33.776Z,28.30
2023-05-11T18:43:01.087Z,26.50
2023-05-11T18:45:39.135Z,23.20
2023-05-11T18:47:12.259Z,26.70
2023-05-11T18:49:14.249Z,27.80
2023-05-11T18:50:44.129Z,25.50
2023-05-11T18:52:44.105Z,27.00
2023-05-11T18:55:23.835Z,24.50
2023-05-11T18:56:52.721Z,28.80
2023-05-11T19:00:11.513Z,23.50
2023-05-11T19:01:47.910Z,24.30
2023-05-11T19:03:33.022Z,24.80
2023-05-11T19:06:21.157Z,26.50
2023-05-11T19:09:50.716Z,24.10
2023-05-11T19:11:51.823Z,24.20
2023-05-11T19:13:19.063Z,26.50
2023-05-11T19:16:28.480Z,21.20
2023-05-11T19:19:19.118Z,20.30
2023-05-11T19:22:09.343Z,21.90
2023-05-11T19:26:11.207Z,17.60
2023-05-11T19:31:26.290Z,23.60
2023-05-11T19:38:52.392Z,18.90
2023-05-11T19:43:01.165Z,16.70
2023-05-11T19:49:09.927Z,20.00
2023-05-11T19:50:09.864Z,18.20
2023-05-11T19:51:30.867Z,20.70
2023-05-11T19:52:09.950Z,19.80
2023-05-11T19:54:08.424Z,18.60
2023-05-11T19:57:47.391Z,18.30
2023-05-11T20:00:43.470Z,16.90
2023-05-11T20:02:42.264Z,20.30
2023-05-11T20:05:29.342Z,20.50
2023-05-11T20:08:39.640Z,20.30
2023-05-11T20:11:08.453Z,16.40
2023-05-11T20:13:35.113Z,16.30
2023-05-11T20:15:05.485Z,17.70
2023-05-11T20:17:05.068Z,18.00
2023-05-11T20:19:05.139Z,19.40
2023-05-11T20:21:56.173Z,16.30
2023-05-11T20:24:24.876Z,16.90
2023-05-11T20:26:23.707Z,19.40
2023-05-11T20:27:53.782Z,17.20
2023-05-11T20:29:24.604Z,18.50
2023-05-11T20:30:54.733Z,19.30
2023-05-11T20:36:42.945Z,17.90
2023-05-11T20:38:43.403Z,15.00
2023-05-11T20:43:54.714Z,14.60
2023-05-11T20:45:23.187Z,15.80
2023-05-11T20:46:51.899Z,19.30
2023-05-11T20:48:32.385Z,22.00
2023-05-11T20:50:52.913Z,14.40
2023-05-11T20:53:10.203Z,14.10
2023-05-11T20:58:51.060Z,17.70
2023-05-11T21:00:51.118Z,17.50
2023-05-11T21:03:25.189Z,14.00
2023-05-11T21:08:01.719Z,16.60
2023-05-11T21:11:30.100Z,14.50
2023-05-11T21:13:00.996Z,16.40
2023-05-11T21:14:27.886Z,15.90
2023-05-11T21:16:00.995Z,13.40
2023-05-11T21:18:00.344Z,15.10
2023-05-11T21:19:29.234Z,17.20
2023-05-11T21:23:28.000Z,16.00
2023-05-11T21:28:12.456Z,17.10
2023-05-11T21:29:43.121Z,16.00
2023-05-11T21:33:30.620Z,17.90
2023-05-11T21:35:56.170Z,16.50
2023-05-11T21:39:54.194Z,16.40
2023-05-11T21:42:41.109Z,18.10
2023-05-11T21:44:14.938Z,20.00
2023-05-11T21:46:20.809Z,17.60
2023-05-11T21:48:51.038Z,17.60
2023-05-11T21:55:28.805Z,20.10
2023-05-11T21:57:15.663Z,19.10
2023-05-11T21:59:16.601Z,20.20
2023-05-11T22:05:10.889Z,21.50
2023-05-11T22:06:41.702Z,23.30
2023-05-11T22:13:34.140Z,27.00
2023-05-11T22:15:04.820Z,22.80
2023-05-11T22:16:32.245Z,26.20
2023-05-11T22:18:00.811Z,28.20
2023-05-11T22:19:30.321Z,27.70
2023-05-11T22:21:49.288Z,29.10
2023-05-11T22:24:17.059Z,25.10
2023-05-11T22:25:46.977Z,24.40
2023-05-11T22:27:16.982Z,27.80
2023-05-11T22:28:47.200Z,26.20
2023-05-11T22:30:16.131Z,27.10
2023-05-11T22:32:17.895Z,26.60
2023-05-11T22:33:50.620Z,23.60
2023-05-11T22:39:31.881Z,25.00
2023-05-11T22:45:01.104Z,23.20
2023-05-11T22:46:32.013Z,21.20
2023-05-11T22:50:38.647Z,25.50
2023-05-11T22:52:46.848Z,21.80
2023-05-11T22:54:16.486Z,25.20
2023-05-11T22:56:17.359Z,26.10
2023-05-11T23:03:24.369Z,30.00
2023-05-11T23:07:12.277Z,28.00
2023-05-11T23:11:50.927Z,30.00
2023-05-11T23:13:21.108Z,30.00
2023-05-11T23:15:56.209Z,31.60
2023-05-11T23:17:24.320Z,29.50
2023-05-11T23:23:23.773Z,28.20
2023-05-11T23:25:00.560Z,33.50
2023-05-11T23:26:23.385Z,30.30
2023-05-11T23:32:49.759Z,32.90
2023-05-11T23:36:42.457Z,30.10
2023-05-11T23:40:56.042Z,30.00
2023-05-11T23:42:27.422Z,32.70
2023-05-11T23:44:17.145Z,30.40
2023-05-11T23:47:34.740Z,31.30
2023-05-11T23:49:04.530Z,31.70
2023-05-11T23:53:41.583Z,29.40
2023-05-11T23:56:09.962Z,31.00
2023-05-11T23:59:57.599Z,32.40
